Parsons Landing, Santa Catalina Island Weather observations

Data are for 10 minute period ending at time listed.
 Day   Time   Solar   Ave.   Ave.  Ave.  Vector    Max.   Stn.   Total 
  of    of     Rad.   Air    Rel.  Wind   Wind     Wind   Baro. Precip. 
Year   Day            Temp.  Hum.  Speed  Dir.     Gust   Pres.         
2016   (PST)   W/m2    F      %     mph   deg.      mph    mb.    in.   
------------------------------------------------------------------------
 236    0:00    3.0    63   85.8     1    255.9     3.6    999.0   0.00  
 236    0:10    3.0    64   82.4     2    261.4     3.6    999.0   0.00  
 236    0:20    3.0    62   83.3     2    134.1     2.4    999.0   0.00  
 236    0:30    2.0    63   85.9     1     57.4     2.4    999.0   0.00  
 236    0:40    3.0    62   87.9     1    141.0     1.8    999.0   0.00  
 236    0:50    3.0    62   88.1     2    143.5     5.4    999.0   0.00  
 236    1:00    3.0    63   89.7     1     62.1     3.6    999.0   0.00  
 236    1:10    3.0    62   88.3     2    152.1     4.8    999.0   0.00  
 236    1:20    3.0    62   87.0     3    158.0     4.8    999.0   0.00  
 236    1:30    1.0    62   85.3     1    169.9     3.6    999.0   0.00  
 236    1:40    2.0    63   86.7     1    135.0     2.4    999.0   0.00  
 236    1:50    2.0    62   86.2     2    161.2     3.0    999.0   0.00  
 236    2:00    0.0    62   85.3     3    150.9     4.2    999.0   0.00  
 236    2:10    0.0    62   84.3     3    144.4     4.2    999.0   0.00  
 236    2:20    0.0    62   86.2     2    141.3     3.0    999.0   0.00  
 236    2:30    0.0    63   86.4     1    107.6     3.0    999.0   0.00  
 236    2:40    2.0    63   84.9     1    173.9     2.4    999.0   0.00  
 236    2:50    0.0    62   83.7     3    145.2     3.6    999.0   0.00  
 236    3:00    0.0    63   85.9     3    123.3     4.8    999.0   0.00  
 236    3:10    1.0    64   85.5     4    110.9     6.0    999.0   0.00  
 236    3:20    2.0    63   86.3     3    130.2     4.2    999.0   0.00  
 236    3:30    3.0    62   90.3     2    161.4     3.6    999.0   0.00  
 236    3:40    3.0    63   91.3     2    206.2     4.8    999.0   0.00  
 236    3:50    3.0    63   87.6     3    218.0     4.2    999.0   0.00  
 236    4:00    3.0    63   88.4     2    275.9     3.6    999.0   0.00  
 236    4:10    3.0    64   90.2     1    323.0     3.6    999.0   0.00  
 236    4:20    3.0    63   91.5     1    237.2     1.8    999.0   0.00  
 236    4:30    3.0    63   91.3     1    229.3     0.6    999.0   0.00  
 236    4:40    3.0    63   90.1     1    242.0     2.4    999.0   0.00  
 236    4:50    3.0    63   89.4     2    249.9     3.0    999.0   0.00  
 236    5:00    3.0    64   88.2     3    254.5     4.2    999.0   0.00  
 236    5:10    3.0    64   88.1     3    268.2     4.2    999.0   0.00  
 236    5:20    3.0    64   88.2     2    247.1     4.2    999.0   0.00  
 236    5:30    4.0    64   87.5     2    252.2     3.6    999.0   0.00  
 236    5:40   12.0    64   87.2     2    260.4     4.2    999.0   0.00  
 236    5:50   25.0    64   87.6     3    254.5     4.2    999.0   0.00  
 236    6:00   42.0    65   88.9     3    251.1     4.2    999.0   0.00  
 236    6:10   66.0    65   90.2     2    242.4     3.6    999.0   0.00  
 236    6:20   90.0    66   89.6     1    234.0     1.8    999.0   0.00  
 236    6:30  114.0    67   88.5     1    296.3     3.0    999.0   0.00  
 236    6:40  137.0    67   87.9     3    318.1     4.8    999.0   0.00  
 236    6:50  158.0    68   87.5     3    343.3     5.4    999.0   0.00  
 236    7:00  999.0   999  999.0   999    999.0   999.0    999.0 999.00  
 236    7:10  999.0   999  999.0   999    999.0   999.0    999.0 999.00  
 236    7:20  999.0   999  999.0   999    999.0   999.0    999.0 999.00  
 236    7:30  999.0   999  999.0   999    999.0   999.0    999.0 999.00  
 236    7:40  999.0   999  999.0   999    999.0   999.0    999.0 999.00  
 236    7:50  999.0   999  999.0   999    999.0   999.0    999.0 999.00  
 236    8:00  346.0    70   80.6     4    326.4     7.2    999.0   0.00  
 236    8:10  348.0    70   81.4     4    337.4     7.8    999.0   0.00  
 236    8:20  400.0    70   80.8     4    332.3     7.2    999.0   0.00  
 236    8:30  420.0    71   78.7     5    336.5     7.8    999.0   0.00  
 236    8:40  442.0    71   78.7     5    334.8     7.8    999.0   0.00  
 236    8:50  470.0    71   78.5     5    320.3     8.4    999.0   0.00  
 236    9:00  494.0    71   78.9     5    331.1     7.8    999.0   0.00  
 236    9:10  510.0    73   76.0     5    342.4     7.8    999.0   0.00  
 236    9:20  537.0    72   77.6     6    327.1     7.8    999.0   0.00  
 236    9:30  557.0    72   77.8     6    325.9     9.0    999.0   0.00  
 236    9:40  581.0    72   78.3     6    326.0     9.0    999.0   0.00  
 236    9:50  588.0    73   75.6     6    333.4     9.0    999.0   0.00  
 236   10:00  596.0    73   76.5     6    336.7     9.6    999.0   0.00  
 236   10:10  603.0    73   75.5     6    326.6     9.6    999.0   0.00  
 236   10:20  561.0    73   76.2     6    326.7     9.0    999.0   0.00  
 236   10:30  656.0    73   76.8     6    334.6     9.0    999.0   0.00  
 236   10:40  712.0    72   78.2     5    313.0     9.0    999.0   0.00  
 236   10:50  654.0    74   76.3     4    340.4     8.4    999.0   0.00  
 236   11:00  691.0    74   74.6     5    337.4     7.8    999.0   0.00  
 236   11:10  632.0    74   75.3     5    337.9     9.0    999.0   0.00  
 236   11:20  699.0    73   77.6     5    328.2     9.0    999.0   0.00  
 236   11:30  702.0    74   74.6     6    334.9     8.4    999.0   0.00  
 236   11:40  707.0    74   74.9     5    320.6     7.8    999.0   0.00  
 236   11:50  709.0    74   74.6     6    328.0     9.6    999.0   0.00  
 236   12:00  710.0    74   73.6     6    339.8     9.0    999.0   0.00  
 236   12:10  708.0    76   70.3     5    332.6     8.4    999.0   0.00  
 236   12:20  709.0    74   74.0     6    326.4    10.2    999.0   0.00  
 236   12:30  705.0    74   72.3     7    332.6    10.2    999.0   0.00  
 236   12:40  698.0    74   72.5     8    333.7    11.3    999.0   0.00  
 236   12:50  695.0    74   72.1     7    333.9    10.8    999.0   0.00  
 236   13:00  689.0    74   70.9     8    339.6    13.1    999.0   0.00  
 236   13:10  681.0    75   69.7     6    347.4    10.2    999.0   0.00  
 236   13:20  670.0    75   70.1     8    327.6    12.5    999.0   0.00  
 236   13:30  659.0    75   70.9     8    324.1    11.9    999.0   0.00  
 236   13:40  646.0    75   71.0     8    313.0    14.3    999.0   0.00  
 236   13:50  632.0    75   70.0     9    313.1    15.5    999.0   0.00  
 236   14:00  617.0    76   69.1     7    336.7     9.6    999.0   0.00  
 236   14:10  602.0    76   67.5     8    323.2    14.3    999.0   0.00  
 236   14:20  583.0    76   68.2     9    328.3    14.3    999.0   0.00  
 236   14:30  565.0    77   66.9     9    314.3    13.7    999.0   0.00  
 236   14:40  541.0    76   67.4     8    308.8    12.5    999.0   0.00  
 236   14:50  519.0    75   69.2     9    303.7    14.3    999.0   0.00  
 236   15:00  496.0    74   72.8     9    302.0    13.7    999.0   0.00  
 236   15:10  475.0    73   73.4     9    304.6    16.1    999.0   0.00  
 236   15:20  451.0    72   75.9     8    295.4    13.7    999.0   0.00  
 236   15:30  425.0    72   76.6     9    294.3    14.3    999.0   0.00  
 236   15:40  400.0    72   76.1     9    303.0    13.7    999.0   0.00  
 236   15:50  374.0    72   75.9     8    305.0    13.1    999.0   0.00  
 236   16:00  348.0    72   74.4     8    302.9    14.3    999.0   0.00  
 236   16:10  321.0    73   74.3     8    301.7    11.9    999.0   0.00  
 236   16:20  295.0    73   73.0     8    300.5    13.1    999.0   0.00  
 236   16:30  269.0    72   75.0     9    294.8    14.9    999.0   0.00  
 236   16:40  242.0    71   77.5    10    294.0    16.1    999.0   0.00  
 236   16:50  215.0    70   78.9     9    297.3    16.1    999.0   0.00  
 236   17:00  190.0    70   79.3     9    297.6    13.7    999.0   0.00  

Return to Parsons Landing graphs page.


Western Regional Climate Center,wrcc@dri.edu